Terminal Aerodrome Forecast
Issued by NWS Quad Cities IA IL

Home | Current Version | Previous Version | Text Only | Print | Product List | Glossary On
Versions: 1 2 3 4 5 6 7 8 9 10 11 12 13 14 15 16 17 18 19 20 21 22 23 24 25 26 27 28 29 30 31 32 33 34 35 36 37 38
197
FTUS43 KDVN 240520
TAFMLI
TAF
KMLI 240520Z 2406/2506 13008KT P6SM BKN250 WS020/20050KT
     FM240900 17011KT P6SM BKN250 WS020/20050KT
     FM241500 21014KT P6SM BKN150
     FM242100 19011KT P6SM VCSH BKN040
     FM250100 16008KT 4SM -SHRA BR OVC025=

USA.gov is the U.S. government's official web portal to all federal, state and local government web resources and services.